sensor_id;sensor_type;location;lat;lon;timestamp;temperature;humidity
22379;DHT22;11357;49.990;7.370;2022-08-03T00:01:21;21.40;56.10
22379;DHT22;11357;49.990;7.370;2022-08-03T00:03:46;21.40;56.20
22379;DHT22;11357;49.990;7.370;2022-08-03T00:06:12;21.30;56.40
22379;DHT22;11357;49.990;7.370;2022-08-03T00:08:38;21.20;56.60
22379;DHT22;11357;49.990;7.370;2022-08-03T00:11:04;21.20;56.70
22379;DHT22;11357;49.990;7.370;2022-08-03T00:13:32;21.20;56.80
22379;DHT22;11357;49.990;7.370;2022-08-03T00:15:58;21.20;56.90
22379;DHT22;11357;49.990;7.370;2022-08-03T00:18:24;21.20;56.80
22379;DHT22;11357;49.990;7.370;2022-08-03T00:20:49;21.20;56.90
22379;DHT22;11357;49.990;7.370;2022-08-03T00:23:15;21.10;56.90
22379;DHT22;11357;49.990;7.370;2022-08-03T00:25:41;21.00;57.00
22379;DHT22;11357;49.990;7.370;2022-08-03T00:28:07;21.00;57.10
22379;DHT22;11357;49.990;7.370;2022-08-03T00:30:33;21.00;57.20
22379;DHT22;11357;49.990;7.370;2022-08-03T00:32:59;20.90;57.40
22379;DHT22;11357;49.990;7.370;2022-08-03T00:35:26;20.90;57.50
22379;DHT22;11357;49.990;7.370;2022-08-03T00:37:51;20.90;57.70
22379;DHT22;11357;49.990;7.370;2022-08-03T00:40:18;20.80;57.80
22379;DHT22;11357;49.990;7.370;2022-08-03T00:42:52;20.80;58.00
22379;DHT22;11357;49.990;7.370;2022-08-03T00:45:23;20.80;58.20
22379;DHT22;11357;49.990;7.370;2022-08-03T00:47:49;20.80;58.20
22379;DHT22;11357;49.990;7.370;2022-08-03T00:50:16;20.80;58.10
22379;DHT22;11357;49.990;7.370;2022-08-03T00:52:42;20.70;58.10
22379;DHT22;11357;49.990;7.370;2022-08-03T00:55:09;20.70;58.00
22379;DHT22;11357;49.990;7.370;2022-08-03T00:57:35;20.70;58.10
22379;DHT22;11357;49.990;7.370;2022-08-03T01:00:01;20.70;58.10
22379;DHT22;11357;49.990;7.370;2022-08-03T01:02:28;20.60;58.10
22379;DHT22;11357;49.990;7.370;2022-08-03T01:04:54;20.60;58.20
22379;DHT22;11357;49.990;7.370;2022-08-03T01:07:45;20.60;58.30
22379;DHT22;11357;49.990;7.370;2022-08-03T01:20:52;20.30;58.60
22379;DHT22;11357;49.990;7.370;2022-08-03T01:32:00;20.20;59.10
22379;DHT22;11357;49.990;7.370;2022-08-03T01:34:44;20.20;59.00
22379;DHT22;11357;49.990;7.370;2022-08-03T01:37:11;20.20;59.20
22379;DHT22;11357;49.990;7.370;2022-08-03T01:39:41;20.20;59.20
22379;DHT22;11357;49.990;7.370;2022-08-03T01:42:10;20.20;59.40
22379;DHT22;11357;49.990;7.370;2022-08-03T01:44:40;20.10;59.50
22379;DHT22;11357;49.990;7.370;2022-08-03T01:47:07;20.00;59.60
22379;DHT22;11357;49.990;7.370;2022-08-03T01:49:38;20.00;59.70
22379;DHT22;11357;49.990;7.370;2022-08-03T01:52:05;20.00;59.80
22379;DHT22;11357;49.990;7.370;2022-08-03T01:54:39;19.90;60.00
22379;DHT22;11357;49.990;7.370;2022-08-03T01:57:07;19.90;60.20
22379;DHT22;11357;49.990;7.370;2022-08-03T01:59:34;19.90;60.20
22379;DHT22;11357;49.990;7.370;2022-08-03T02:02:02;19.90;60.20
22379;DHT22;11357;49.990;7.370;2022-08-03T02:04:28;19.90;60.40
22379;DHT22;11357;49.990;7.370;2022-08-03T02:06:55;19.80;60.40
22379;DHT22;11357;49.990;7.370;2022-08-03T02:09:22;19.80;60.60
22379;DHT22;11357;49.990;7.370;2022-08-03T02:11:50;19.80;60.80
22379;DHT22;11357;49.990;7.370;2022-08-03T02:14:18;19.80;61.10
22379;DHT22;11357;49.990;7.370;2022-08-03T02:16:44;19.80;61.20
22379;DHT22;11357;49.990;7.370;2022-08-03T02:19:11;19.80;61.20
22379;DHT22;11357;49.990;7.370;2022-08-03T02:21:40;19.80;61.30
22379;DHT22;11357;49.990;7.370;2022-08-03T02:24:08;19.80;61.30
22379;DHT22;11357;49.990;7.370;2022-08-03T02:26:36;19.70;61.20
22379;DHT22;11357;49.990;7.370;2022-08-03T02:29:08;19.70;61.20
22379;DHT22;11357;49.990;7.370;2022-08-03T02:31:36;19.60;61.10
22379;DHT22;11357;49.990;7.370;2022-08-03T02:34:07;19.70;61.10
22379;DHT22;11357;49.990;7.370;2022-08-03T02:36:36;19.60;61.20
22379;DHT22;11357;49.990;7.370;2022-08-03T02:39:02;19.50;61.20
22379;DHT22;11357;49.990;7.370;2022-08-03T02:41:40;19.50;61.30
22379;DHT22;11357;49.990;7.370;2022-08-03T02:44:08;19.40;61.60
22379;DHT22;11357;49.990;7.370;2022-08-03T02:46:37;19.40;61.60
22379;DHT22;11357;49.990;7.370;2022-08-03T02:49:05;19.30;61.60
22379;DHT22;11357;49.990;7.370;2022-08-03T02:51:33;19.30;61.70
22379;DHT22;11357;49.990;7.370;2022-08-03T02:54:01;19.30;61.80
22379;DHT22;11357;49.990;7.370;2022-08-03T02:56:28;19.30;61.80
22379;DHT22;11357;49.990;7.370;2022-08-03T02:58:55;19.30;61.70
22379;DHT22;11357;49.990;7.370;2022-08-03T03:01:24;19.30;61.90
22379;DHT22;11357;49.990;7.370;2022-08-03T03:03:52;19.30;61.90
22379;DHT22;11357;49.990;7.370;2022-08-03T03:06:18;19.30;61.90
22379;DHT22;11357;49.990;7.370;2022-08-03T03:08:45;19.30;61.90
22379;DHT22;11357;49.990;7.370;2022-08-03T03:11:12;19.30;61.90
22379;DHT22;11357;49.990;7.370;2022-08-03T03:13:41;19.30;61.90
22379;DHT22;11357;49.990;7.370;2022-08-03T03:16:07;19.30;62.00
22379;DHT22;11357;49.990;7.370;2022-08-03T03:18:35;19.30;61.90
22379;DHT22;11357;49.990;7.370;2022-08-03T03:21:03;19.30;62.00
22379;DHT22;11357;49.990;7.370;2022-08-03T03:23:30;19.20;62.30
22379;DHT22;11357;49.990;7.370;2022-08-03T03:25:56;19.10;62.40
22379;DHT22;11357;49.990;7.370;2022-08-03T03:28:24;19.00;62.70
22379;DHT22;11357;49.990;7.370;2022-08-03T03:30:50;19.00;63.10
22379;DHT22;11357;49.990;7.370;2022-08-03T03:33:16;18.90;63.10
22379;DHT22;11357;49.990;7.370;2022-08-03T03:35:42;18.90;63.10
22379;DHT22;11357;49.990;7.370;2022-08-03T03:38:10;18.90;63.10
22379;DHT22;11357;49.990;7.370;2022-08-03T03:40:37;18.90;63.20
22379;DHT22;11357;49.990;7.370;2022-08-03T03:43:06;18.90;63.30
22379;DHT22;11357;49.990;7.370;2022-08-03T03:45:33;18.90;63.40
22379;DHT22;11357;49.990;7.370;2022-08-03T03:48:03;18.90;63.40
22379;DHT22;11357;49.990;7.370;2022-08-03T03:50:31;18.90;63.60
22379;DHT22;11357;49.990;7.370;2022-08-03T03:52:57;18.90;63.70
22379;DHT22;11357;49.990;7.370;2022-08-03T03:55:23;18.90;63.70
22379;DHT22;11357;49.990;7.370;2022-08-03T03:57:49;18.90;63.70
22379;DHT22;11357;49.990;7.370;2022-08-03T04:00:16;18.90;63.70
22379;DHT22;11357;49.990;7.370;2022-08-03T04:02:42;18.90;63.70
22379;DHT22;11357;49.990;7.370;2022-08-03T04:05:08;18.90;63.60
22379;DHT22;11357;49.990;7.370;2022-08-03T04:11:30;19.00;63.90
22379;DHT22;11357;49.990;7.370;2022-08-03T04:16:46;18.90;64.40
22379;DHT22;11357;49.990;7.370;2022-08-03T04:19:27;18.90;64.30
22379;DHT22;11357;49.990;7.370;2022-08-03T04:21:58;18.90;64.30
22379;DHT22;11357;49.990;7.370;2022-08-03T04:24:27;19.00;65.20
22379;DHT22;11357;49.990;7.370;2022-08-03T04:26:55;19.00;64.60
22379;DHT22;11357;49.990;7.370;2022-08-03T04:29:23;19.00;64.70
22379;DHT22;11357;49.990;7.370;2022-08-03T04:31:52;19.00;65.80
22379;DHT22;11357;49.990;7.370;2022-08-03T04:34:18;19.00;65.40
22379;DHT22;11357;49.990;7.370;2022-08-03T04:36:48;19.00;65.50
22379;DHT22;11357;49.990;7.370;2022-08-03T04:39:22;19.00;65.50
22379;DHT22;11357;49.990;7.370;2022-08-03T04:41:53;19.00;65.40
22379;DHT22;11357;49.990;7.370;2022-08-03T04:44:23;19.00;65.20
22379;DHT22;11357;49.990;7.370;2022-08-03T04:46:49;19.00;65.10
22379;DHT22;11357;49.990;7.370;2022-08-03T04:49:15;19.00;65.00
22379;DHT22;11357;49.990;7.370;2022-08-03T04:51:41;19.00;65.00
22379;DHT22;11357;49.990;7.370;2022-08-03T04:54:11;19.00;65.00
22379;DHT22;11357;49.990;7.370;2022-08-03T04:56:42;19.10;65.20
22379;DHT22;11357;49.990;7.370;2022-08-03T04:59:11;19.20;65.30
22379;DHT22;11357;49.990;7.370;2022-08-03T05:01:39;19.40;65.30
22379;DHT22;11357;49.990;7.370;2022-08-03T05:04:06;19.50;65.10
22379;DHT22;11357;49.990;7.370;2022-08-03T05:06:32;19.70;65.00
22379;DHT22;11357;49.990;7.370;2022-08-03T05:08:57;19.80;64.80
22379;DHT22;11357;49.990;7.370;2022-08-03T05:11:23;20.00;64.60
22379;DHT22;11357;49.990;7.370;2022-08-03T05:13:49;20.10;64.30
22379;DHT22;11357;49.990;7.370;2022-08-03T05:16:15;20.30;64.20
22379;DHT22;11357;49.990;7.370;2022-08-03T05:18:44;20.50;64.00
22379;DHT22;11357;49.990;7.370;2022-08-03T05:21:10;20.60;63.80
22379;DHT22;11357;49.990;7.370;2022-08-03T05:23:38;20.80;63.50
22379;DHT22;11357;49.990;7.370;2022-08-03T05:26:04;20.90;63.20
22379;DHT22;11357;49.990;7.370;2022-08-03T05:28:30;21.00;63.00
22379;DHT22;11357;49.990;7.370;2022-08-03T05:30:56;21.20;62.90
22379;DHT22;11357;49.990;7.370;2022-08-03T05:33:22;21.40;62.70
22379;DHT22;11357;49.990;7.370;2022-08-03T05:35:47;21.60;62.60
22379;DHT22;11357;49.990;7.370;2022-08-03T05:38:13;21.80;62.40
22379;DHT22;11357;49.990;7.370;2022-08-03T05:40:39;21.90;62.00
22379;DHT22;11357;49.990;7.370;2022-08-03T05:43:04;22.20;61.70
22379;DHT22;11357;49.990;7.370;2022-08-03T05:45:30;22.40;61.30
22379;DHT22;11357;49.990;7.370;2022-08-03T05:47:56;22.50;60.80
22379;DHT22;11357;49.990;7.370;2022-08-03T05:50:21;22.50;60.70
22379;DHT22;11357;49.990;7.370;2022-08-03T05:52:47;22.50;60.80
22379;DHT22;11357;49.990;7.370;2022-08-03T05:55:13;22.50;60.90
22379;DHT22;11357;49.990;7.370;2022-08-03T05:57:39;22.60;61.10
22379;DHT22;11357;49.990;7.370;2022-08-03T06:00:10;22.70;61.30
22379;DHT22;11357;49.990;7.370;2022-08-03T06:02:36;22.90;61.30
22379;DHT22;11357;49.990;7.370;2022-08-03T06:05:02;23.10;61.10
22379;DHT22;11357;49.990;7.370;2022-08-03T06:07:28;23.30;60.80
22379;DHT22;11357;49.990;7.370;2022-08-03T06:09:54;23.70;60.30
22379;DHT22;11357;49.990;7.370;2022-08-03T06:12:20;24.10;59.80
22379;DHT22;11357;49.990;7.370;2022-08-03T06:14:45;24.40;59.20
22379;DHT22;11357;49.990;7.370;2022-08-03T06:17:11;24.70;58.60
22379;DHT22;11357;49.990;7.370;2022-08-03T06:19:37;25.10;58.00
22379;DHT22;11357;49.990;7.370;2022-08-03T06:22:03;25.40;57.30
22379;DHT22;11357;49.990;7.370;2022-08-03T06:24:29;25.70;56.70
22379;DHT22;11357;49.990;7.370;2022-08-03T06:26:54;26.00;56.30
22379;DHT22;11357;49.990;7.370;2022-08-03T06:29:20;26.30;55.80
22379;DHT22;11357;49.990;7.370;2022-08-03T06:31:46;26.70;55.20
22379;DHT22;11357;49.990;7.370;2022-08-03T06:34:12;26.90;54.50
22379;DHT22;11357;49.990;7.370;2022-08-03T06:36:38;27.20;54.20
22379;DHT22;11357;49.990;7.370;2022-08-03T06:39:04;27.40;53.60
22379;DHT22;11357;49.990;7.370;2022-08-03T06:41:29;27.70;53.10
22379;DHT22;11357;49.990;7.370;2022-08-03T06:43:55;28.10;52.50
22379;DHT22;11357;49.990;7.370;2022-08-03T06:46:21;28.30;52.00
22379;DHT22;11357;49.990;7.370;2022-08-03T06:48:46;28.60;51.50
22379;DHT22;11357;49.990;7.370;2022-08-03T06:51:13;28.90;50.90
22379;DHT22;11357;49.990;7.370;2022-08-03T06:53:38;29.30;50.30
22379;DHT22;11357;49.990;7.370;2022-08-03T06:56:05;29.70;49.30
22379;DHT22;11357;49.990;7.370;2022-08-03T06:58:30;30.00;48.60
22379;DHT22;11357;49.990;7.370;2022-08-03T07:00:56;30.30;48.00
22379;DHT22;11357;49.990;7.370;2022-08-03T07:03:22;30.60;47.10
22379;DHT22;11357;49.990;7.370;2022-08-03T07:05:48;30.80;46.30
22379;DHT22;11357;49.990;7.370;2022-08-03T07:08:15;31.20;46.20
22379;DHT22;11357;49.990;7.370;2022-08-03T07:10:41;31.40;45.40
22379;DHT22;11357;49.990;7.370;2022-08-03T07:13:06;31.70;45.20
22379;DHT22;11357;49.990;7.370;2022-08-03T07:15:33;32.00;44.70
22379;DHT22;11357;49.990;7.370;2022-08-03T07:17:59;32.40;43.80
22379;DHT22;11357;49.990;7.370;2022-08-03T07:20:25;32.70;43.10
22379;DHT22;11357;49.990;7.370;2022-08-03T07:22:51;33.00;42.30
22379;DHT22;11357;49.990;7.370;2022-08-03T07:25:17;33.30;41.80
22379;DHT22;11357;49.990;7.370;2022-08-03T07:27:43;33.50;40.90
22379;DHT22;11357;49.990;7.370;2022-08-03T07:30:10;33.70;40.70
22379;DHT22;11357;49.990;7.370;2022-08-03T07:32:36;33.90;40.50
22379;DHT22;11357;49.990;7.370;2022-08-03T07:35:03;34.20;39.80
22379;DHT22;11357;49.990;7.370;2022-08-03T07:37:29;34.40;38.60
22379;DHT22;11357;49.990;7.370;2022-08-03T07:39:55;34.60;38.10
22379;DHT22;11357;49.990;7.370;2022-08-03T07:42:21;34.80;37.60
22379;DHT22;11357;49.990;7.370;2022-08-03T07:44:48;35.10;37.20
22379;DHT22;11357;49.990;7.370;2022-08-03T07:47:18;35.30;36.60
22379;DHT22;11357;49.990;7.370;2022-08-03T07:49:44;35.60;36.00
22379;DHT22;11357;49.990;7.370;2022-08-03T07:52:09;35.80;35.40
22379;DHT22;11357;49.990;7.370;2022-08-03T07:54:54;36.10;34.60
22379;DHT22;11357;49.990;7.370;2022-08-03T07:57:19;36.40;33.80
22379;DHT22;11357;49.990;7.370;2022-08-03T07:59:47;36.60;33.20
22379;DHT22;11357;49.990;7.370;2022-08-03T08:02:13;36.80;32.80
22379;DHT22;11357;49.990;7.370;2022-08-03T08:04:39;37.10;32.40
22379;DHT22;11357;49.990;7.370;2022-08-03T08:07:05;37.30;32.00
22379;DHT22;11357;49.990;7.370;2022-08-03T08:09:31;37.50;31.40
22379;DHT22;11357;49.990;7.370;2022-08-03T08:11:57;37.70;30.90
22379;DHT22;11357;49.990;7.370;2022-08-03T08:14:22;37.90;30.60
22379;DHT22;11357;49.990;7.370;2022-08-03T08:16:48;38.10;30.50
22379;DHT22;11357;49.990;7.370;2022-08-03T08:19:14;38.30;30.10
22379;DHT22;11357;49.990;7.370;2022-08-03T08:21:41;38.60;29.70
22379;DHT22;11357;49.990;7.370;2022-08-03T08:24:08;38.70;29.40
22379;DHT22;11357;49.990;7.370;2022-08-03T08:26:35;38.80;29.50
22379;DHT22;11357;49.990;7.370;2022-08-03T08:29:01;39.10;29.40
22379;DHT22;11357;49.990;7.370;2022-08-03T08:31:27;39.40;29.20
22379;DHT22;11357;49.990;7.370;2022-08-03T08:33:52;39.70;28.70
22379;DHT22;11357;49.990;7.370;2022-08-03T08:36:18;39.70;28.20
22379;DHT22;11357;49.990;7.370;2022-08-03T08:38:46;39.90;28.40
22379;DHT22;11357;49.990;7.370;2022-08-03T08:41:13;40.10;28.80
22379;DHT22;11357;49.990;7.370;2022-08-03T08:43:40;40.30;28.30
22379;DHT22;11357;49.990;7.370;2022-08-03T08:46:06;40.60;27.70
22379;DHT22;11357;49.990;7.370;2022-08-03T08:48:35;40.80;27.50
22379;DHT22;11357;49.990;7.370;2022-08-03T08:51:03;41.00;27.50
22379;DHT22;11357;49.990;7.370;2022-08-03T08:53:30;41.10;26.90
22379;DHT22;11357;49.990;7.370;2022-08-03T08:56:01;41.20;26.90
22379;DHT22;11357;49.990;7.370;2022-08-03T08:58:29;41.50;27.00
22379;DHT22;11357;49.990;7.370;2022-08-03T09:00:56;41.80;26.60
22379;DHT22;11357;49.990;7.370;2022-08-03T09:03:21;42.00;26.60
22379;DHT22;11357;49.990;7.370;2022-08-03T09:05:47;42.20;26.70
22379;DHT22;11357;49.990;7.370;2022-08-03T09:08:13;42.30;26.70
22379;DHT22;11357;49.990;7.370;2022-08-03T09:10:39;42.60;26.50
22379;DHT22;11357;49.990;7.370;2022-08-03T09:13:07;42.70;26.30
22379;DHT22;11357;49.990;7.370;2022-08-03T09:15:33;42.80;26.10
22379;DHT22;11357;49.990;7.370;2022-08-03T09:18:01;42.90;25.80
22379;DHT22;11357;49.990;7.370;2022-08-03T09:20:30;43.10;25.50
22379;DHT22;11357;49.990;7.370;2022-08-03T09:25:39;42.90;25.10
22379;DHT22;11357;49.990;7.370;2022-08-03T09:28:16;43.00;25.10
22379;DHT22;11357;49.990;7.370;2022-08-03T09:30:44;43.10;24.80
22379;DHT22;11357;49.990;7.370;2022-08-03T09:33:13;43.10;25.00
22379;DHT22;11357;49.990;7.370;2022-08-03T09:35:45;43.30;24.90
22379;DHT22;11357;49.990;7.370;2022-08-03T09:38:17;43.50;24.80
22379;DHT22;11357;49.990;7.370;2022-08-03T09:40:44;43.60;24.90
22379;DHT22;11357;49.990;7.370;2022-08-03T09:43:11;43.90;25.40
22379;DHT22;11357;49.990;7.370;2022-08-03T09:45:38;44.00;24.60
22379;DHT22;11357;49.990;7.370;2022-08-03T09:48:23;44.10;24.60
22379;DHT22;11357;49.990;7.370;2022-08-03T09:50:53;44.00;24.30
22379;DHT22;11357;49.990;7.370;2022-08-03T09:53:19;43.70;24.00
22379;DHT22;11357;49.990;7.370;2022-08-03T09:55:55;43.20;24.50
22379;DHT22;11357;49.990;7.370;2022-08-03T09:58:22;43.30;24.70
22379;DHT22;11357;49.990;7.370;2022-08-03T10:01:04;43.80;24.80
22379;DHT22;11357;49.990;7.370;2022-08-03T10:03:32;44.20;24.80
22379;DHT22;11357;49.990;7.370;2022-08-03T10:06:19;44.50;24.10
22379;DHT22;11357;49.990;7.370;2022-08-03T10:08:49;44.70;24.30
22379;DHT22;11357;49.990;7.370;2022-08-03T10:11:30;45.10;24.20
22379;DHT22;11357;49.990;7.370;2022-08-03T10:14:03;45.30;24.10
22379;DHT22;11357;49.990;7.370;2022-08-03T10:16:38;45.50;23.60
22379;DHT22;11357;49.990;7.370;2022-08-03T10:19:08;45.60;23.50
22379;DHT22;11357;49.990;7.370;2022-08-03T10:21:37;45.60;23.40
22379;DHT22;11357;49.990;7.370;2022-08-03T10:24:05;45.70;23.20
22379;DHT22;11357;49.990;7.370;2022-08-03T10:26:33;45.70;23.40
22379;DHT22;11357;49.990;7.370;2022-08-03T10:29:04;45.70;23.40
22379;DHT22;11357;49.990;7.370;2022-08-03T10:31:38;45.70;23.20
22379;DHT22;11357;49.990;7.370;2022-08-03T10:34:10;45.70;23.20
22379;DHT22;11357;49.990;7.370;2022-08-03T10:36:40;45.70;23.20
22379;DHT22;11357;49.990;7.370;2022-08-03T10:39:07;46.00;23.40
22379;DHT22;11357;49.990;7.370;2022-08-03T10:41:38;46.20;23.20
22379;DHT22;11357;49.990;7.370;2022-08-03T10:44:36;46.40;23.20
22379;DHT22;11357;49.990;7.370;2022-08-03T10:47:04;46.30;22.50
22379;DHT22;11357;49.990;7.370;2022-08-03T10:49:30;46.10;22.70
22379;DHT22;11357;49.990;7.370;2022-08-03T10:51:56;45.80;22.50
22379;DHT22;11357;49.990;7.370;2022-08-03T10:57:51;45.40;23.10
22379;DHT22;11357;49.990;7.370;2022-08-03T11:00:25;46.10;23.10
22379;DHT22;11357;49.990;7.370;2022-08-03T11:03:10;46.50;22.90
22379;DHT22;11357;49.990;7.370;2022-08-03T11:05:46;46.80;22.50
22379;DHT22;11357;49.990;7.370;2022-08-03T11:08:36;46.60;22.00
22379;DHT22;11357;49.990;7.370;2022-08-03T11:14:04;46.10;22.60
22379;DHT22;11357;49.990;7.370;2022-08-03T11:19:04;46.60;22.50
22379;DHT22;11357;49.990;7.370;2022-08-03T11:27:32;47.60;22.10
22379;DHT22;11357;49.990;7.370;2022-08-03T11:30:16;47.80;21.60
22379;DHT22;11357;49.990;7.370;2022-08-03T11:32:51;47.90;21.80
22379;DHT22;11357;49.990;7.370;2022-08-03T13:07:43;49.00;20.50
22379;DHT22;11357;49.990;7.370;2022-08-03T13:10:09;48.50;20.60
22379;DHT22;11357;49.990;7.370;2022-08-03T13:12:46;48.20;20.90
22379;DHT22;11357;49.990;7.370;2022-08-03T13:15:13;47.80;20.90
22379;DHT22;11357;49.990;7.370;2022-08-03T13:17:39;47.40;20.90
22379;DHT22;11357;49.990;7.370;2022-08-03T13:20:06;46.90;21.00
22379;DHT22;11357;49.990;7.370;2022-08-03T13:22:32;46.30;21.30
22379;DHT22;11357;49.990;7.370;2022-08-03T13:24:58;46.00;21.60
22379;DHT22;11357;49.990;7.370;2022-08-03T13:27:26;45.70;21.60
22379;DHT22;11357;49.990;7.370;2022-08-03T13:29:52;44.90;21.80
22379;DHT22;11357;49.990;7.370;2022-08-03T13:32:18;44.30;22.40
22379;DHT22;11357;49.990;7.370;2022-08-03T13:34:44;44.30;22.70
22379;DHT22;11357;49.990;7.370;2022-08-03T13:37:10;44.00;22.50
22379;DHT22;11357;49.990;7.370;2022-08-03T13:39:37;43.40;23.00
22379;DHT22;11357;49.990;7.370;2022-08-03T13:42:03;43.00;23.50
22379;DHT22;11357;49.990;7.370;2022-08-03T13:44:30;42.70;23.90
22379;DHT22;11357;49.990;7.370;2022-08-03T13:46:56;42.60;23.80
22379;DHT22;11357;49.990;7.370;2022-08-03T13:49:22;42.70;24.20
22379;DHT22;11357;49.990;7.370;2022-08-03T13:51:47;42.90;23.60
22379;DHT22;11357;49.990;7.370;2022-08-03T13:54:13;42.90;23.50
22379;DHT22;11357;49.990;7.370;2022-08-03T13:56:39;42.50;23.30
22379;DHT22;11357;49.990;7.370;2022-08-03T13:59:04;42.30;23.60
22379;DHT22;11357;49.990;7.370;2022-08-03T14:01:30;42.00;23.70
22379;DHT22;11357;49.990;7.370;2022-08-03T14:03:56;41.90;23.90
22379;DHT22;11357;49.990;7.370;2022-08-03T14:06:23;42.20;24.10
22379;DHT22;11357;49.990;7.370;2022-08-03T14:08:49;42.60;23.90
22379;DHT22;11357;49.990;7.370;2022-08-03T14:11:16;42.80;23.60
22379;DHT22;11357;49.990;7.370;2022-08-03T14:13:42;43.10;23.40
22379;DHT22;11357;49.990;7.370;2022-08-03T14:16:07;43.30;23.20
22379;DHT22;11357;49.990;7.370;2022-08-03T14:18:33;43.30;23.10
22379;DHT22;11357;49.990;7.370;2022-08-03T14:21:03;43.50;23.10
22379;DHT22;11357;49.990;7.370;2022-08-03T14:23:29;43.60;23.10
22379;DHT22;11357;49.990;7.370;2022-08-03T14:25:55;43.90;23.10
22379;DHT22;11357;49.990;7.370;2022-08-03T14:28:21;44.20;22.80
22379;DHT22;11357;49.990;7.370;2022-08-03T14:30:47;44.40;22.70
22379;DHT22;11357;49.990;7.370;2022-08-03T14:33:13;44.50;22.80
22379;DHT22;11357;49.990;7.370;2022-08-03T14:35:39;44.80;22.70
22379;DHT22;11357;49.990;7.370;2022-08-03T14:38:05;45.10;22.60
22379;DHT22;11357;49.990;7.370;2022-08-03T14:40:32;45.30;22.40
22379;DHT22;11357;49.990;7.370;2022-08-03T14:42:59;45.40;22.20
22379;DHT22;11357;49.990;7.370;2022-08-03T14:45:25;45.50;22.10
22379;DHT22;11357;49.990;7.370;2022-08-03T14:47:50;45.30;21.90
22379;DHT22;11357;49.990;7.370;2022-08-03T14:50:16;45.10;22.10
22379;DHT22;11357;49.990;7.370;2022-08-03T14:52:42;45.10;22.20
22379;DHT22;11357;49.990;7.370;2022-08-03T14:55:08;45.10;22.30
22379;DHT22;11357;49.990;7.370;2022-08-03T14:57:34;45.10;22.30
22379;DHT22;11357;49.990;7.370;2022-08-03T15:00:00;45.00;22.20
22379;DHT22;11357;49.990;7.370;2022-08-03T15:02:26;45.00;22.40
22379;DHT22;11357;49.990;7.370;2022-08-03T15:04:53;45.00;22.40
22379;DHT22;11357;49.990;7.370;2022-08-03T15:07:19;44.90;22.30
22379;DHT22;11357;49.990;7.370;2022-08-03T15:09:45;44.90;22.50
22379;DHT22;11357;49.990;7.370;2022-08-03T15:12:10;44.90;22.50
22379;DHT22;11357;49.990;7.370;2022-08-03T15:14:36;44.80;22.60
22379;DHT22;11357;49.990;7.370;2022-08-03T15:17:02;44.70;22.50
22379;DHT22;11357;49.990;7.370;2022-08-03T15:19:28;44.50;22.30
22379;DHT22;11357;49.990;7.370;2022-08-03T15:21:54;44.20;22.50
22379;DHT22;11357;49.990;7.370;2022-08-03T15:24:20;44.00;22.60
22379;DHT22;11357;49.990;7.370;2022-08-03T15:26:45;44.00;22.80
22379;DHT22;11357;49.990;7.370;2022-08-03T15:29:11;43.80;22.70
22379;DHT22;11357;49.990;7.370;2022-08-03T15:31:38;43.70;23.10
22379;DHT22;11357;49.990;7.370;2022-08-03T15:34:04;43.60;23.10
22379;DHT22;11357;49.990;7.370;2022-08-03T15:36:31;43.40;23.10
22379;DHT22;11357;49.990;7.370;2022-08-03T15:38:57;43.20;23.40
22379;DHT22;11357;49.990;7.370;2022-08-03T15:41:23;43.10;23.60
22379;DHT22;11357;49.990;7.370;2022-08-03T15:43:48;43.10;23.70
22379;DHT22;11357;49.990;7.370;2022-08-03T15:46:17;43.00;23.70
22379;DHT22;11357;49.990;7.370;2022-08-03T15:48:43;42.90;24.00
22379;DHT22;11357;49.990;7.370;2022-08-03T15:51:08;42.80;23.90
22379;DHT22;11357;49.990;7.370;2022-08-03T15:53:34;42.80;23.70
22379;DHT22;11357;49.990;7.370;2022-08-03T15:56:01;42.80;23.60
22379;DHT22;11357;49.990;7.370;2022-08-03T15:58:28;42.50;23.50
22379;DHT22;11357;49.990;7.370;2022-08-03T16:00:55;42.00;23.60
22379;DHT22;11357;49.990;7.370;2022-08-03T16:03:22;41.40;23.90
22379;DHT22;11357;49.990;7.370;2022-08-03T16:05:48;41.00;24.50
22379;DHT22;11357;49.990;7.370;2022-08-03T16:08:14;40.80;24.90
22379;DHT22;11357;49.990;7.370;2022-08-03T16:10:40;40.70;25.00
22379;DHT22;11357;49.990;7.370;2022-08-03T16:13:06;40.60;25.20
22379;DHT22;11357;49.990;7.370;2022-08-03T16:15:32;40.50;24.90
22379;DHT22;11357;49.990;7.370;2022-08-03T16:17:57;40.40;25.10
22379;DHT22;11357;49.990;7.370;2022-08-03T16:20:23;40.50;25.00
22379;DHT22;11357;49.990;7.370;2022-08-03T16:22:49;40.40;24.80
22379;DHT22;11357;49.990;7.370;2022-08-03T16:25:16;40.20;25.00
22379;DHT22;11357;49.990;7.370;2022-08-03T16:27:42;40.10;25.10
22379;DHT22;11357;49.990;7.370;2022-08-03T16:30:09;39.90;25.20
22379;DHT22;11357;49.990;7.370;2022-08-03T16:32:36;39.70;25.20
22379;DHT22;11357;49.990;7.370;2022-08-03T16:35:05;39.50;25.40
22379;DHT22;11357;49.990;7.370;2022-08-03T16:37:31;39.40;25.50
22379;DHT22;11357;49.990;7.370;2022-08-03T16:39:57;39.30;25.60
22379;DHT22;11357;49.990;7.370;2022-08-03T16:42:23;39.10;25.50
22379;DHT22;11357;49.990;7.370;2022-08-03T16:44:49;39.00;25.60
22379;DHT22;11357;49.990;7.370;2022-08-03T16:47:14;38.90;25.70
22379;DHT22;11357;49.990;7.370;2022-08-03T16:49:40;38.70;25.90
22379;DHT22;11357;49.990;7.370;2022-08-03T16:52:06;38.60;25.90
22379;DHT22;11357;49.990;7.370;2022-08-03T16:54:31;38.50;26.00
22379;DHT22;11357;49.990;7.370;2022-08-03T16:57:00;38.40;26.00
22379;DHT22;11357;49.990;7.370;2022-08-03T16:59:28;38.30;26.10
22379;DHT22;11357;49.990;7.370;2022-08-03T17:01:54;38.20;26.20
22379;DHT22;11357;49.990;7.370;2022-08-03T17:04:19;38.10;26.30
22379;DHT22;11357;49.990;7.370;2022-08-03T17:06:46;38.10;26.30
22379;DHT22;11357;49.990;7.370;2022-08-03T17:09:14;37.90;26.20
22379;DHT22;11357;49.990;7.370;2022-08-03T17:11:43;37.90;26.30
22379;DHT22;11357;49.990;7.370;2022-08-03T17:14:09;37.80;26.30
22379;DHT22;11357;49.990;7.370;2022-08-03T17:16:36;37.80;26.40
22379;DHT22;11357;49.990;7.370;2022-08-03T17:19:04;37.60;26.40
22379;DHT22;11357;49.990;7.370;2022-08-03T17:21:33;37.50;26.60
22379;DHT22;11357;49.990;7.370;2022-08-03T17:24:22;37.40;26.60
22379;DHT22;11357;49.990;7.370;2022-08-03T17:26:52;37.30;26.70
22379;DHT22;11357;49.990;7.370;2022-08-03T17:29:21;37.30;26.80
22379;DHT22;11357;49.990;7.370;2022-08-03T17:31:49;37.30;26.90
22379;DHT22;11357;49.990;7.370;2022-08-03T17:34:17;37.20;27.00
22379;DHT22;11357;49.990;7.370;2022-08-03T17:36:44;37.10;26.90
22379;DHT22;11357;49.990;7.370;2022-08-03T17:39:16;37.00;26.90
22379;DHT22;11357;49.990;7.370;2022-08-03T17:41:42;36.90;27.10
22379;DHT22;11357;49.990;7.370;2022-08-03T17:44:07;36.80;27.30
22379;DHT22;11357;49.990;7.370;2022-08-03T17:46:33;36.70;27.30
22379;DHT22;11357;49.990;7.370;2022-08-03T17:48:59;36.70;27.50